sensor_id;sensor_type;location;lat;lon;timestamp;temperature;humidity
68764;DHT22;55754;52.038;5.566;2023-02-13T00:01:55;8.40;91.70
68764;DHT22;55754;52.038;5.566;2023-02-13T00:04:21;8.30;91.70
68764;DHT22;55754;52.038;5.566;2023-02-13T00:06:46;8.30;91.80
68764;DHT22;55754;52.038;5.566;2023-02-13T00:09:12;8.30;91.90
68764;DHT22;55754;52.038;5.566;2023-02-13T00:11:38;8.40;91.90
68764;DHT22;55754;52.038;5.566;2023-02-13T00:14:04;8.40;91.90
68764;DHT22;55754;52.038;5.566;2023-02-13T00:16:29;8.40;92.00
68764;DHT22;55754;52.038;5.566;2023-02-13T00:18:55;8.40;92.10
68764;DHT22;55754;52.038;5.566;2023-02-13T00:21:24;8.40;92.00
68764;DHT22;55754;52.038;5.566;2023-02-13T00:23:49;8.40;92.00
68764;DHT22;55754;52.038;5.566;2023-02-13T00:26:16;8.50;91.90
68764;DHT22;55754;52.038;5.566;2023-02-13T00:28:42;8.40;92.10
68764;DHT22;55754;52.038;5.566;2023-02-13T00:31:13;8.40;92.10
68764;DHT22;55754;52.038;5.566;2023-02-13T00:33:39;8.40;92.40
68764;DHT22;55754;52.038;5.566;2023-02-13T00:36:16;8.40;92.20
68764;DHT22;55754;52.038;5.566;2023-02-13T00:38:43;8.40;92.20
68764;DHT22;55754;52.038;5.566;2023-02-13T00:41:09;8.40;92.10
68764;DHT22;55754;52.038;5.566;2023-02-13T00:43:36;8.40;92.10
68764;DHT22;55754;52.038;5.566;2023-02-13T00:46:01;8.40;92.10
68764;DHT22;55754;52.038;5.566;2023-02-13T00:48:29;8.30;92.10
68764;DHT22;55754;52.038;5.566;2023-02-13T00:50:55;8.30;92.20
68764;DHT22;55754;52.038;5.566;2023-02-13T00:53:22;8.30;92.20
68764;DHT22;55754;52.038;5.566;2023-02-13T00:55:47;8.20;92.40
68764;DHT22;55754;52.038;5.566;2023-02-13T00:58:15;8.20;92.40
68764;DHT22;55754;52.038;5.566;2023-02-13T01:00:41;8.20;92.40
68764;DHT22;55754;52.038;5.566;2023-02-13T01:03:07;8.20;92.40
68764;DHT22;55754;52.038;5.566;2023-02-13T01:05:33;8.20;92.50
68764;DHT22;55754;52.038;5.566;2023-02-13T01:07:58;8.30;92.50
68764;DHT22;55754;52.038;5.566;2023-02-13T01:10:24;8.30;92.50
68764;DHT22;55754;52.038;5.566;2023-02-13T01:12:51;8.30;92.40
68764;DHT22;55754;52.038;5.566;2023-02-13T01:15:16;8.30;92.40
68764;DHT22;55754;52.038;5.566;2023-02-13T01:17:42;8.20;92.70
68764;DHT22;55754;52.038;5.566;2023-02-13T01:20:10;8.30;92.60
68764;DHT22;55754;52.038;5.566;2023-02-13T01:22:35;8.30;93.10
68764;DHT22;55754;52.038;5.566;2023-02-13T01:25:01;8.30;93.00
68764;DHT22;55754;52.038;5.566;2023-02-13T01:27:27;8.30;93.10
68764;DHT22;55754;52.038;5.566;2023-02-13T01:29:53;8.30;93.20
68764;DHT22;55754;52.038;5.566;2023-02-13T01:32:19;8.20;93.20
68764;DHT22;55754;52.038;5.566;2023-02-13T01:34:45;8.30;93.10
68764;DHT22;55754;52.038;5.566;2023-02-13T01:37:10;8.20;92.90
68764;DHT22;55754;52.038;5.566;2023-02-13T01:39:36;8.20;92.90
68764;DHT22;55754;52.038;5.566;2023-02-13T01:42:02;8.20;92.90
68764;DHT22;55754;52.038;5.566;2023-02-13T01:44:48;8.20;92.90
68764;DHT22;55754;52.038;5.566;2023-02-13T01:49:49;8.30;93.10
68764;DHT22;55754;52.038;5.566;2023-02-13T01:52:16;8.20;93.10
68764;DHT22;55754;52.038;5.566;2023-02-13T01:54:42;8.20;93.00
68764;DHT22;55754;52.038;5.566;2023-02-13T01:57:15;8.20;92.90
68764;DHT22;55754;52.038;5.566;2023-02-13T01:59:55;8.20;92.90
68764;DHT22;55754;52.038;5.566;2023-02-13T02:02:21;8.20;92.90
68764;DHT22;55754;52.038;5.566;2023-02-13T02:04:48;8.20;93.00
68764;DHT22;55754;52.038;5.566;2023-02-13T02:07:23;8.20;92.90
68764;DHT22;55754;52.038;5.566;2023-02-13T02:09:51;8.20;93.00
68764;DHT22;55754;52.038;5.566;2023-02-13T02:12:48;8.20;92.70
68764;DHT22;55754;52.038;5.566;2023-02-13T02:15:14;8.10;92.90
68764;DHT22;55754;52.038;5.566;2023-02-13T02:17:40;8.10;92.90
68764;DHT22;55754;52.038;5.566;2023-02-13T02:20:44;8.00;92.90
68764;DHT22;55754;52.038;5.566;2023-02-13T02:41:07;8.10;92.70
68764;DHT22;55754;52.038;5.566;2023-02-13T02:43:54;8.10;92.70
68764;DHT22;55754;52.038;5.566;2023-02-13T02:46:44;8.10;92.80
68764;DHT22;55754;52.038;5.566;2023-02-13T02:49:37;8.10;93.00
68764;DHT22;55754;52.038;5.566;2023-02-13T02:52:58;8.10;92.80
68764;DHT22;55754;52.038;5.566;2023-02-13T02:58:20;8.00;92.90
68764;DHT22;55754;52.038;5.566;2023-02-13T03:01:10;8.00;93.00
68764;DHT22;55754;52.038;5.566;2023-02-13T03:03:56;8.00;93.00
68764;DHT22;55754;52.038;5.566;2023-02-13T03:06:57;8.00;93.00
68764;DHT22;55754;52.038;5.566;2023-02-13T03:09:29;8.00;93.20
68764;DHT22;55754;52.038;5.566;2023-02-13T03:12:19;8.10;93.00
68764;DHT22;55754;52.038;5.566;2023-02-13T03:15:04;8.10;93.00
68764;DHT22;55754;52.038;5.566;2023-02-13T03:17:30;8.10;92.90
68764;DHT22;55754;52.038;5.566;2023-02-13T03:21:04;8.10;92.90
68764;DHT22;55754;52.038;5.566;2023-02-13T03:32:38;8.10;92.80
68764;DHT22;55754;52.038;5.566;2023-02-13T03:35:42;8.10;92.80
68764;DHT22;55754;52.038;5.566;2023-02-13T03:38:53;8.10;92.80
68764;DHT22;55754;52.038;5.566;2023-02-13T03:41:39;8.10;92.90
68764;DHT22;55754;52.038;5.566;2023-02-13T03:44:21;8.10;92.90
68764;DHT22;55754;52.038;5.566;2023-02-13T03:46:52;8.10;92.90
68764;DHT22;55754;52.038;5.566;2023-02-13T03:49:30;8.10;92.90
68764;DHT22;55754;52.038;5.566;2023-02-13T03:55:09;8.10;92.90
68764;DHT22;55754;52.038;5.566;2023-02-13T03:57:59;8.10;93.00
68764;DHT22;55754;52.038;5.566;2023-02-13T04:00:49;8.10;93.00
68764;DHT22;55754;52.038;5.566;2023-02-13T04:03:44;8.10;93.00
68764;DHT22;55754;52.038;5.566;2023-02-13T04:06:17;8.10;93.00
68764;DHT22;55754;52.038;5.566;2023-02-13T04:08:44;8.10;93.00
68764;DHT22;55754;52.038;5.566;2023-02-13T04:14:42;8.10;93.10
68764;DHT22;55754;52.038;5.566;2023-02-13T04:17:35;8.10;93.20
68764;DHT22;55754;52.038;5.566;2023-02-13T04:20:04;8.10;93.30
68764;DHT22;55754;52.038;5.566;2023-02-13T04:22:30;8.10;93.30
68764;DHT22;55754;52.038;5.566;2023-02-13T04:24:55;8.10;93.30
68764;DHT22;55754;52.038;5.566;2023-02-13T04:27:24;8.20;93.40
68764;DHT22;55754;52.038;5.566;2023-02-13T04:29:51;8.20;93.30
68764;DHT22;55754;52.038;5.566;2023-02-13T04:32:17;8.20;93.30
68764;DHT22;55754;52.038;5.566;2023-02-13T04:34:42;8.20;93.30
68764;DHT22;55754;52.038;5.566;2023-02-13T04:37:08;8.20;93.30
68764;DHT22;55754;52.038;5.566;2023-02-13T04:39:34;8.20;93.40
68764;DHT22;55754;52.038;5.566;2023-02-13T04:41:59;8.20;93.30
68764;DHT22;55754;52.038;5.566;2023-02-13T04:44:25;8.20;93.50
68764;DHT22;55754;52.038;5.566;2023-02-13T04:46:50;8.20;93.40
68764;DHT22;55754;52.038;5.566;2023-02-13T04:49:16;8.20;93.40
68764;DHT22;55754;52.038;5.566;2023-02-13T04:51:41;8.20;93.50
68764;DHT22;55754;52.038;5.566;2023-02-13T04:54:07;8.20;93.40
68764;DHT22;55754;52.038;5.566;2023-02-13T04:56:32;8.20;93.40
68764;DHT22;55754;52.038;5.566;2023-02-13T04:58:58;8.20;93.50
68764;DHT22;55754;52.038;5.566;2023-02-13T05:01:23;8.20;93.50
68764;DHT22;55754;52.038;5.566;2023-02-13T05:03:50;8.20;93.50
68764;DHT22;55754;52.038;5.566;2023-02-13T05:06:16;8.20;93.50
68764;DHT22;55754;52.038;5.566;2023-02-13T05:08:41;8.20;93.60
68764;DHT22;55754;52.038;5.566;2023-02-13T05:11:07;8.20;93.50
68764;DHT22;55754;52.038;5.566;2023-02-13T05:13:32;8.20;93.50
68764;DHT22;55754;52.038;5.566;2023-02-13T05:15:58;8.20;93.50
68764;DHT22;55754;52.038;5.566;2023-02-13T05:18:23;8.20;93.50
68764;DHT22;55754;52.038;5.566;2023-02-13T05:20:49;8.20;93.60
68764;DHT22;55754;52.038;5.566;2023-02-13T05:23:35;8.10;93.60
68764;DHT22;55754;52.038;5.566;2023-02-13T05:26:00;8.20;93.70
68764;DHT22;55754;52.038;5.566;2023-02-13T05:28:26;8.20;93.70
68764;DHT22;55754;52.038;5.566;2023-02-13T05:31:10;8.20;93.80
68764;DHT22;55754;52.038;5.566;2023-02-13T05:33:36;8.20;93.80
68764;DHT22;55754;52.038;5.566;2023-02-13T05:36:01;8.20;93.80
68764;DHT22;55754;52.038;5.566;2023-02-13T05:38:27;8.20;93.80
68764;DHT22;55754;52.038;5.566;2023-02-13T05:40:53;8.20;93.90
68764;DHT22;55754;52.038;5.566;2023-02-13T05:43:20;8.20;94.00
68764;DHT22;55754;52.038;5.566;2023-02-13T05:45:45;8.20;94.00
68764;DHT22;55754;52.038;5.566;2023-02-13T05:48:12;8.30;94.10
68764;DHT22;55754;52.038;5.566;2023-02-13T05:50:38;8.20;94.00
68764;DHT22;55754;52.038;5.566;2023-02-13T05:53:03;8.30;94.30
68764;DHT22;55754;52.038;5.566;2023-02-13T05:55:29;8.30;94.30
68764;DHT22;55754;52.038;5.566;2023-02-13T05:57:57;8.30;94.30
68764;DHT22;55754;52.038;5.566;2023-02-13T06:00:23;8.30;94.40
68764;DHT22;55754;52.038;5.566;2023-02-13T06:02:49;8.30;94.40
68764;DHT22;55754;52.038;5.566;2023-02-13T06:05:14;8.30;94.50
68764;DHT22;55754;52.038;5.566;2023-02-13T06:07:40;8.30;94.50
68764;DHT22;55754;52.038;5.566;2023-02-13T06:10:06;8.30;94.40
68764;DHT22;55754;52.038;5.566;2023-02-13T06:12:32;8.40;94.70
68764;DHT22;55754;52.038;5.566;2023-02-13T06:14:57;8.30;94.90
68764;DHT22;55754;52.038;5.566;2023-02-13T06:17:23;8.30;95.20
68764;DHT22;55754;52.038;5.566;2023-02-13T06:19:48;8.40;95.20
68764;DHT22;55754;52.038;5.566;2023-02-13T06:22:14;8.40;95.30
68764;DHT22;55754;52.038;5.566;2023-02-13T06:24:42;8.40;95.30
68764;DHT22;55754;52.038;5.566;2023-02-13T06:27:43;8.30;95.30
68764;DHT22;55754;52.038;5.566;2023-02-13T06:30:10;8.40;95.30
68764;DHT22;55754;52.038;5.566;2023-02-13T06:32:35;8.40;95.20
68764;DHT22;55754;52.038;5.566;2023-02-13T06:35:01;8.40;95.00
68764;DHT22;55754;52.038;5.566;2023-02-13T06:37:26;8.40;95.10
68764;DHT22;55754;52.038;5.566;2023-02-13T06:39:52;8.40;95.00
68764;DHT22;55754;52.038;5.566;2023-02-13T06:42:18;8.40;95.00
68764;DHT22;55754;52.038;5.566;2023-02-13T06:44:43;8.40;95.00
68764;DHT22;55754;52.038;5.566;2023-02-13T06:47:12;8.40;94.90
68764;DHT22;55754;52.038;5.566;2023-02-13T06:49:37;8.40;94.90
68764;DHT22;55754;52.038;5.566;2023-02-13T06:52:03;8.40;94.90
68764;DHT22;55754;52.038;5.566;2023-02-13T06:54:28;8.40;94.90
68764;DHT22;55754;52.038;5.566;2023-02-13T06:56:54;8.40;94.90
68764;DHT22;55754;52.038;5.566;2023-02-13T06:59:19;8.40;95.30
68764;DHT22;55754;52.038;5.566;2023-02-13T07:01:45;8.40;94.90
68764;DHT22;55754;52.038;5.566;2023-02-13T07:04:10;8.40;95.00
68764;DHT22;55754;52.038;5.566;2023-02-13T07:06:36;8.40;95.00
68764;DHT22;55754;52.038;5.566;2023-02-13T07:09:03;8.40;95.10
68764;DHT22;55754;52.038;5.566;2023-02-13T07:11:29;8.30;95.30
68764;DHT22;55754;52.038;5.566;2023-02-13T07:13:54;8.40;95.30
68764;DHT22;55754;52.038;5.566;2023-02-13T07:16:20;8.40;95.30
68764;DHT22;55754;52.038;5.566;2023-02-13T07:18:45;8.40;95.30
68764;DHT22;55754;52.038;5.566;2023-02-13T07:21:11;8.40;95.10
68764;DHT22;55754;52.038;5.566;2023-02-13T07:23:37;8.40;95.20
68764;DHT22;55754;52.038;5.566;2023-02-13T07:26:03;8.50;95.30
68764;DHT22;55754;52.038;5.566;2023-02-13T07:28:29;8.50;95.30
68764;DHT22;55754;52.038;5.566;2023-02-13T07:30:54;8.50;95.20
68764;DHT22;55754;52.038;5.566;2023-02-13T07:33:20;8.50;95.30
68764;DHT22;55754;52.038;5.566;2023-02-13T07:35:46;8.60;95.30
68764;DHT22;55754;52.038;5.566;2023-02-13T07:38:12;8.60;95.40
68764;DHT22;55754;52.038;5.566;2023-02-13T07:40:38;8.60;95.30
68764;DHT22;55754;52.038;5.566;2023-02-13T07:43:03;8.50;95.30
68764;DHT22;55754;52.038;5.566;2023-02-13T07:45:29;8.60;95.30
68764;DHT22;55754;52.038;5.566;2023-02-13T07:47:55;8.60;95.30
68764;DHT22;55754;52.038;5.566;2023-02-13T07:50:21;8.60;95.30
68764;DHT22;55754;52.038;5.566;2023-02-13T07:53:01;8.60;95.30
68764;DHT22;55754;52.038;5.566;2023-02-13T07:55:28;8.60;95.60
68764;DHT22;55754;52.038;5.566;2023-02-13T07:57:54;8.60;95.40
68764;DHT22;55754;52.038;5.566;2023-02-13T08:00:21;8.60;95.40
68764;DHT22;55754;52.038;5.566;2023-02-13T08:02:47;8.60;95.40
68764;DHT22;55754;52.038;5.566;2023-02-13T08:05:13;8.70;95.40
68764;DHT22;55754;52.038;5.566;2023-02-13T08:07:41;8.70;95.30
68764;DHT22;55754;52.038;5.566;2023-02-13T08:10:08;8.70;95.40
68764;DHT22;55754;52.038;5.566;2023-02-13T08:12:53;8.70;95.20
68764;DHT22;55754;52.038;5.566;2023-02-13T08:15:19;8.70;95.20
68764;DHT22;55754;52.038;5.566;2023-02-13T08:17:44;8.80;95.20
68764;DHT22;55754;52.038;5.566;2023-02-13T08:20:10;8.80;95.10
68764;DHT22;55754;52.038;5.566;2023-02-13T08:22:36;8.80;95.00
68764;DHT22;55754;52.038;5.566;2023-02-13T08:25:03;8.80;95.00
68764;DHT22;55754;52.038;5.566;2023-02-13T08:27:28;8.90;95.10
68764;DHT22;55754;52.038;5.566;2023-02-13T08:29:55;8.90;95.00
68764;DHT22;55754;52.038;5.566;2023-02-13T08:32:21;9.00;94.90
68764;DHT22;55754;52.038;5.566;2023-02-13T08:34:47;9.10;94.80
68764;DHT22;55754;52.038;5.566;2023-02-13T08:37:13;9.10;94.70
68764;DHT22;55754;52.038;5.566;2023-02-13T08:39:39;9.10;94.60
68764;DHT22;55754;52.038;5.566;2023-02-13T08:42:04;9.10;94.60
68764;DHT22;55754;52.038;5.566;2023-02-13T08:44:30;9.10;94.50
68764;DHT22;55754;52.038;5.566;2023-02-13T08:46:56;9.10;94.50
68764;DHT22;55754;52.038;5.566;2023-02-13T08:49:21;9.10;94.60
68764;DHT22;55754;52.038;5.566;2023-02-13T08:51:48;9.10;94.70
68764;DHT22;55754;52.038;5.566;2023-02-13T08:54:14;9.20;94.50
68764;DHT22;55754;52.038;5.566;2023-02-13T08:56:41;9.30;94.40
68764;DHT22;55754;52.038;5.566;2023-02-13T08:59:07;9.40;94.30
68764;DHT22;55754;52.038;5.566;2023-02-13T09:01:33;9.40;94.10
68764;DHT22;55754;52.038;5.566;2023-02-13T09:03:59;9.40;94.20
68764;DHT22;55754;52.038;5.566;2023-02-13T09:06:25;9.60;93.80
68764;DHT22;55754;52.038;5.566;2023-02-13T09:08:51;9.60;93.70
68764;DHT22;55754;52.038;5.566;2023-02-13T09:11:17;9.80;93.70
68764;DHT22;55754;52.038;5.566;2023-02-13T09:13:44;9.80;93.40
68764;DHT22;55754;52.038;5.566;2023-02-13T09:16:10;11.10;93.50
68764;DHT22;55754;52.038;5.566;2023-02-13T09:18:36;10.00;92.60
68764;DHT22;55754;52.038;5.566;2023-02-13T09:21:10;10.00;92.70
68764;DHT22;55754;52.038;5.566;2023-02-13T09:23:38;10.30;92.50
68764;DHT22;55754;52.038;5.566;2023-02-13T09:26:06;10.10;92.40
68764;DHT22;55754;52.038;5.566;2023-02-13T09:28:33;10.10;92.30
68764;DHT22;55754;52.038;5.566;2023-02-13T09:30:59;10.10;92.00
68764;DHT22;55754;52.038;5.566;2023-02-13T09:33:25;10.10;91.90
68764;DHT22;55754;52.038;5.566;2023-02-13T09:35:51;10.20;91.80
68764;DHT22;55754;52.038;5.566;2023-02-13T09:38:17;10.10;91.80
68764;DHT22;55754;52.038;5.566;2023-02-13T09:40:50;10.20;91.90
68764;DHT22;55754;52.038;5.566;2023-02-13T09:43:50;10.20;91.40
68764;DHT22;55754;52.038;5.566;2023-02-13T09:46:23;10.30;91.50
68764;DHT22;55754;52.038;5.566;2023-02-13T09:48:53;10.30;91.40
68764;DHT22;55754;52.038;5.566;2023-02-13T09:51:21;10.40;91.50
68764;DHT22;55754;52.038;5.566;2023-02-13T09:54:00;10.30;91.40
68764;DHT22;55754;52.038;5.566;2023-02-13T09:56:39;10.30;90.90
68764;DHT22;55754;52.038;5.566;2023-02-13T09:59:18;10.40;91.10
68764;DHT22;55754;52.038;5.566;2023-02-13T10:01:52;10.60;91.10
68764;DHT22;55754;52.038;5.566;2023-02-13T10:04:28;10.60;90.60
68764;DHT22;55754;52.038;5.566;2023-02-13T10:13:39;10.70;90.80
68764;DHT22;55754;52.038;5.566;2023-02-13T10:18:18;10.70;90.60
68764;DHT22;55754;52.038;5.566;2023-02-13T10:20:50;10.80;90.30
68764;DHT22;55754;52.038;5.566;2023-02-13T10:26:18;10.70;90.20
68764;DHT22;55754;52.038;5.566;2023-02-13T10:28:54;10.80;90.30
68764;DHT22;55754;52.038;5.566;2023-02-13T10:31:42;10.70;90.40
68764;DHT22;55754;52.038;5.566;2023-02-13T10:34:14;10.90;90.30
68764;DHT22;55754;52.038;5.566;2023-02-13T10:36:44;11.00;90.20
68764;DHT22;55754;52.038;5.566;2023-02-13T10:39:25;11.10;89.50
68764;DHT22;55754;52.038;5.566;2023-02-13T10:41:54;11.20;89.30
68764;DHT22;55754;52.038;5.566;2023-02-13T10:44:47;11.10;89.40
68764;DHT22;55754;52.038;5.566;2023-02-13T11:03:32;11.40;87.40
68764;DHT22;55754;52.038;5.566;2023-02-13T11:05:59;11.50;86.50
68764;DHT22;55754;52.038;5.566;2023-02-13T11:08:40;11.70;87.20
68764;DHT22;55754;52.038;5.566;2023-02-13T11:19:16;12.10;84.80
68764;DHT22;55754;52.038;5.566;2023-02-13T11:21:42;12.10;84.10
68764;DHT22;55754;52.038;5.566;2023-02-13T11:24:23;12.30;84.00
68764;DHT22;55754;52.038;5.566;2023-02-13T11:26:52;12.40;82.70
68764;DHT22;55754;52.038;5.566;2023-02-13T11:29:30;12.30;82.60
68764;DHT22;55754;52.038;5.566;2023-02-13T11:32:06;12.40;82.50
68764;DHT22;55754;52.038;5.566;2023-02-13T11:34:32;12.50;83.00
68764;DHT22;55754;52.038;5.566;2023-02-13T11:37:30;12.50;82.60
68764;DHT22;55754;52.038;5.566;2023-02-13T11:39:57;12.60;81.60
68764;DHT22;55754;52.038;5.566;2023-02-13T11:42:25;12.60;82.10
68764;DHT22;55754;52.038;5.566;2023-02-13T11:47:41;12.60;82.10
68764;DHT22;55754;52.038;5.566;2023-02-13T11:50:29;12.70;82.30
68764;DHT22;55754;52.038;5.566;2023-02-13T11:53:05;12.70;81.20
68764;DHT22;55754;52.038;5.566;2023-02-13T11:55:35;12.70;81.40
68764;DHT22;55754;52.038;5.566;2023-02-13T12:00:41;12.70;79.60
68764;DHT22;55754;52.038;5.566;2023-02-13T12:08:35;12.60;80.50
68764;DHT22;55754;52.038;5.566;2023-02-13T12:11:06;12.70;81.50
68764;DHT22;55754;52.038;5.566;2023-02-13T12:13:38;12.80;81.30
68764;DHT22;55754;52.038;5.566;2023-02-13T12:18:57;12.80;80.50
68764;DHT22;55754;52.038;5.566;2023-02-13T12:24:37;12.80;80.70
68764;DHT22;55754;52.038;5.566;2023-02-13T12:33:28;12.90;80.50
68764;DHT22;55754;52.038;5.566;2023-02-13T12:41:18;13.00;79.80
68764;DHT22;55754;52.038;5.566;2023-02-13T12:54:49;12.90;79.80
68764;DHT22;55754;52.038;5.566;2023-02-13T13:00:21;13.00;78.90
68764;DHT22;55754;52.038;5.566;2023-02-13T13:09:02;13.00;79.10
68764;DHT22;55754;52.038;5.566;2023-02-13T13:17:08;12.90;77.60
68764;DHT22;55754;52.038;5.566;2023-02-13T13:22:59;12.90;78.60
68764;DHT22;55754;52.038;5.566;2023-02-13T13:25:31;12.90;78.80
68764;DHT22;55754;52.038;5.566;2023-02-13T13:28:06;12.90;79.80
68764;DHT22;55754;52.038;5.566;2023-02-13T13:30:36;13.00;79.20
68764;DHT22;55754;52.038;5.566;2023-02-13T13:33:19;12.90;79.50
68764;DHT22;55754;52.038;5.566;2023-02-13T13:36:53;13.00;79.40
68764;DHT22;55754;52.038;5.566;2023-02-13T13:44:53;13.00;78.60
68764;DHT22;55754;52.038;5.566;2023-02-13T13:47:31;13.10;78.40
68764;DHT22;55754;52.038;5.566;2023-02-13T13:50:03;13.10;79.30
68764;DHT22;55754;52.038;5.566;2023-02-13T13:52:35;13.00;78.30
68764;DHT22;55754;52.038;5.566;2023-02-13T13:55:05;13.00;78.10
68764;DHT22;55754;52.038;5.566;2023-02-13T14:07:50;13.00;78.30
68764;DHT22;55754;52.038;5.566;2023-02-13T14:13:29;13.00;78.00
68764;DHT22;55754;52.038;5.566;2023-02-13T14:15:55;13.00;77.90
68764;DHT22;55754;52.038;5.566;2023-02-13T14:18:22;12.90;78.30
68764;DHT22;55754;52.038;5.566;2023-02-13T14:20:49;12.80;78.70
68764;DHT22;55754;52.038;5.566;2023-02-13T14:23:32;12.80;79.10
68764;DHT22;55754;52.038;5.566;2023-02-13T14:28:42;12.80;78.90
68764;DHT22;55754;52.038;5.566;2023-02-13T14:31:33;12.80;79.40
68764;DHT22;55754;52.038;5.566;2023-02-13T14:34:04;12.70;78.80
68764;DHT22;55754;52.038;5.566;2023-02-13T14:36:35;12.70;79.40
68764;DHT22;55754;52.038;5.566;2023-02-13T14:39:21;12.70;79.60
68764;DHT22;55754;52.038;5.566;2023-02-13T14:44:20;12.70;80.10
68764;DHT22;55754;52.038;5.566;2023-02-13T14:46:49;12.70;80.00
68764;DHT22;55754;52.038;5.566;2023-02-13T14:49:47;12.60;79.80
68764;DHT22;55754;52.038;5.566;2023-02-13T14:52:19;12.50;79.40
68764;DHT22;55754;52.038;5.566;2023-02-13T14:54:54;12.50;80.30
68764;DHT22;55754;52.038;5.566;2023-02-13T14:57:26;12.60;80.40
68764;DHT22;55754;52.038;5.566;2023-02-13T15:00:04;12.50;80.50
68764;DHT22;55754;52.038;5.566;2023-02-13T15:02:44;12.50;80.40
68764;DHT22;55754;52.038;5.566;2023-02-13T15:05:12;12.50;80.30
68764;DHT22;55754;52.038;5.566;2023-02-13T15:07:46;12.50;80.60
68764;DHT22;55754;52.038;5.566;2023-02-13T15:10:38;12.50;80.40
68764;DHT22;55754;52.038;5.566;2023-02-13T15:13:15;12.50;80.30
68764;DHT22;55754;52.038;5.566;2023-02-13T15:15:42;12.60;80.60
68764;DHT22;55754;52.038;5.566;2023-02-13T15:18:21;12.50;80.80
68764;DHT22;55754;52.038;5.566;2023-02-13T15:20:48;12.50;80.10
68764;DHT22;55754;52.038;5.566;2023-02-13T15:23:25;12.50;81.00
68764;DHT22;55754;52.038;5.566;2023-02-13T15:25:57;12.60;80.90
68764;DHT22;55754;52.038;5.566;2023-02-13T15:28:24;12.50;80.70
68764;DHT22;55754;52.038;5.566;2023-02-13T15:31:04;12.50;81.20
68764;DHT22;55754;52.038;5.566;2023-02-13T15:33:42;12.50;80.60
68764;DHT22;55754;52.038;5.566;2023-02-13T15:36:17;12.50;80.90
68764;DHT22;55754;52.038;5.566;2023-02-13T15:38:42;12.50;80.80
68764;DHT22;55754;52.038;5.566;2023-02-13T15:41:12;12.50;81.20
68764;DHT22;55754;52.038;5.566;2023-02-13T15:43:42;12.50;80.60
68764;DHT22;55754;52.038;5.566;2023-02-13T15:46:32;12.50;81.00
68764;DHT22;55754;52.038;5.566;2023-02-13T15:49:13;12.40;81.00
68764;DHT22;55754;52.038;5.566;2023-02-13T15:51:39;12.50;81.20
68764;DHT22;55754;52.038;5.566;2023-02-13T15:54:21;12.40;81.70
68764;DHT22;55754;52.038;5.566;2023-02-13T15:56:48;12.50;81.80
68764;DHT22;55754;52.038;5.566;2023-02-13T15:59:15;12.40;81.50
68764;DHT22;55754;52.038;5.566;2023-02-13T16:01:44;12.40;81.60
68764;DHT22;55754;52.038;5.566;2023-02-13T16:04:15;12.40;81.70
68764;DHT22;55754;52.038;5.566;2023-02-13T16:06:43;12.40;81.50
68764;DHT22;55754;52.038;5.566;2023-02-13T16:09:32;12.40;81.70
68764;DHT22;55754;52.038;5.566;2023-02-13T16:12:24;12.30;81.30
68764;DHT22;55754;52.038;5.566;2023-02-13T16:17:34;12.30;81.70
68764;DHT22;55754;52.038;5.566;2023-02-13T16:20:03;12.30;81.80
68764;DHT22;55754;52.038;5.566;2023-02-13T16:22:32;12.30;82.20
68764;DHT22;55754;52.038;5.566;2023-02-13T16:28:13;12.20;82.30
68764;DHT22;55754;52.038;5.566;2023-02-13T16:31:13;12.20;81.80
68764;DHT22;55754;52.038;5.566;2023-02-13T16:33:40;12.10;82.20
68764;DHT22;55754;52.038;5.566;2023-02-13T16:38:46;12.10;82.90
68764;DHT22;55754;52.038;5.566;2023-02-13T16:43:56;12.00;83.00
68764;DHT22;55754;52.038;5.566;2023-02-13T16:46:29;12.30;83.40
68764;DHT22;55754;52.038;5.566;2023-02-13T16:51:36;11.80;83.80
68764;DHT22;55754;52.038;5.566;2023-02-13T16:54:16;11.80;83.40
68764;DHT22;55754;52.038;5.566;2023-02-13T16:56:56;11.80;83.90
68764;DHT22;55754;52.038;5.566;2023-02-13T17:04:42;11.60;84.00
68764;DHT22;55754;52.038;5.566;2023-02-13T17:07:21;11.50;84.50
68764;DHT22;55754;52.038;5.566;2023-02-13T17:10:03;11.50;84.60
68764;DHT22;55754;52.038;5.566;2023-02-13T17:12:39;11.40;85.00
68764;DHT22;55754;52.038;5.566;2023-02-13T17:15:09;11.40;85.00
68764;DHT22;55754;52.038;5.566;2023-02-13T17:17:36;11.40;85.50
68764;DHT22;55754;52.038;5.566;2023-02-13T17:20:02;11.30;85.60
68764;DHT22;55754;52.038;5.566;2023-02-13T17:22:34;11.30;85.90
68764;DHT22;55754;52.038;5.566;2023-02-13T17:25:04;11.40;86.20
68764;DHT22;55754;52.038;5.566;2023-02-13T17:27:30;11.10;86.40
68764;DHT22;55754;52.038;5.566;2023-02-13T17:29:55;12.40;87.00
68764;DHT22;55754;52.038;5.566;2023-02-13T17:32:23;11.10;86.40
68764;DHT22;55754;52.038;5.566;2023-02-13T17:34:50;11.10;86.60
68764;DHT22;55754;52.038;5.566;2023-02-13T17:37:20;11.00;86.60
68764;DHT22;55754;52.038;5.566;2023-02-13T17:39:48;11.80;87.30
68764;DHT22;55754;52.038;5.566;2023-02-13T17:42:26;12.10;87.80
68764;DHT22;55754;52.038;5.566;2023-02-13T17:44:53;11.70;87.80
68764;DHT22;55754;52.038;5.566;2023-02-13T17:47:19;11.70;88.00
68764;DHT22;55754;52.038;5.566;2023-02-13T17:49:45;10.80;87.70
68764;DHT22;55754;52.038;5.566;2023-02-13T17:52:24;10.80;87.60
68764;DHT22;55754;52.038;5.566;2023-02-13T17:54:50;10.80;87.70
68764;DHT22;55754;52.038;5.566;2023-02-13T17:57:17;10.70;87.90
68764;DHT22;55754;52.038;5.566;2023-02-13T17:59:46;10.70;87.90
68764;DHT22;55754;52.038;5.566;2023-02-13T18:02:16;10.70;88.30
68764;DHT22;55754;52.038;5.566;2023-02-13T18:04:42;11.30;88.90
68764;DHT22;55754;52.038;5.566;2023-02-13T18:07:10;10.60;88.80
68764;DHT22;55754;52.038;5.566;2023-02-13T18:09:36;10.50;88.80
68764;DHT22;55754;52.038;5.566;2023-02-13T18:12:02;10.50;89.10
68764;DHT22;55754;52.038;5.566;2023-02-13T18:14:31;10.40;89.40
68764;DHT22;55754;52.038;5.566;2023-02-13T18:16:57;10.30;89.80
68764;DHT22;55754;52.038;5.566;2023-02-13T18:19:23;10.30;89.90
68764;DHT22;55754;52.038;5.566;2023-02-13T18:21:48;10.20;90.00
68764;DHT22;55754;52.038;5.566;2023-02-13T18:24:14;10.10;90.10
68764;DHT22;55754;52.038;5.566;2023-02-13T18:26:39;10.10;90.20
68764;DHT22;55754;52.038;5.566;2023-02-13T18:29:05;10.00;90.20
68764;DHT22;55754;52.038;5.566;2023-02-13T18:31:31;10.00;90.30
68764;DHT22;55754;52.038;5.566;2023-02-13T18:33:57;9.90;90.50
68764;DHT22;55754;52.038;5.566;2023-02-13T18:36:22;9.80;90.60
68764;DHT22;55754;52.038;5.566;2023-02-13T18:38:49;9.80;90.70
68764;DHT22;55754;52.038;5.566;2023-02-13T18:41:15;9.70;90.70
68764;DHT22;55754;52.038;5.566;2023-02-13T18:43:41;9.60;90.80
68764;DHT22;55754;52.038;5.566;2023-02-13T18:46:06;9.50;90.90
68764;DHT22;55754;52.038;5.566;2023-02-13T18:48:32;9.40;91.00
68764;DHT22;55754;52.038;5.566;2023-02-13T18:50:58;9.40;91.00
68764;DHT22;55754;52.038;5.566;2023-02-13T18:53:25;9.30;91.10
68764;DHT22;55754;52.038;5.566;2023-02-13T18:56:05;9.30;91.20
68764;DHT22;55754;52.038;5.566;2023-02-13T18:58:31;9.30;91.40
68764;DHT22;55754;52.038;5.566;2023-02-13T19:01:05;9.30;91.30